createdAt,value
2023-04-30T00:02:54.999Z,21.10
2023-04-30T00:07:58.829Z,21.00
2023-04-30T00:13:03.581Z,18.10
2023-04-30T00:18:08.052Z,18.00
2023-04-30T00:23:12.107Z,22.00
2023-04-30T00:28:20.068Z,19.10
2023-04-30T00:33:23.920Z,18.60
2023-04-30T00:38:28.607Z,17.80
2023-04-30T00:43:32.601Z,19.10
2023-04-30T00:48:37.313Z,16.60
2023-04-30T00:53:41.978Z,16.70
2023-04-30T00:58:46.463Z,17.80
2023-04-30T01:03:51.028Z,21.60
2023-04-30T01:08:55.520Z,18.40
2023-04-30T01:14:13.155Z,17.80
2023-04-30T01:19:25.987Z,18.70
2023-04-30T01:24:47.543Z,24.90
2023-04-30T01:29:51.509Z,23.80
2023-04-30T01:34:56.049Z,25.00
2023-04-30T01:40:25.731Z,22.10
2023-04-30T01:46:02.063Z,26.80
2023-04-30T01:51:17.063Z,20.50
2023-04-30T01:56:30.446Z,21.40
2023-04-30T02:01:34.828Z,18.70
2023-04-30T02:06:39.171Z,23.30
2023-04-30T02:11:43.289Z,26.10
2023-04-30T02:16:48.778Z,22.60
2023-04-30T02:21:55.547Z,23.00
2023-04-30T02:26:59.519Z,22.00
2023-04-30T02:32:04.097Z,25.00
2023-04-30T02:37:09.056Z,24.20
2023-04-30T02:42:13.014Z,23.30
2023-04-30T02:47:17.357Z,27.30
2023-04-30T02:52:22.065Z,24.40
2023-04-30T02:57:27.008Z,22.10
2023-04-30T03:02:31.399Z,25.40
2023-04-30T03:07:36.503Z,22.60
2023-04-30T03:12:41.636Z,25.80
2023-04-30T03:17:46.448Z,24.00
2023-04-30T03:22:51.230Z,20.80
2023-04-30T03:27:55.317Z,20.10
2023-04-30T03:33:00.435Z,19.80
2023-04-30T03:38:05.773Z,21.70
2023-04-30T03:43:10.007Z,22.40
2023-04-30T03:48:16.540Z,21.10
2023-04-30T03:53:21.326Z,21.10
2023-04-30T03:58:25.846Z,19.60
2023-04-30T04:03:30.057Z,27.90
2023-04-30T04:08:39.016Z,22.10
2023-04-30T04:13:43.539Z,19.60
2023-04-30T04:18:48.213Z,14.50
2023-04-30T04:23:52.109Z,12.80
2023-04-30T04:28:56.481Z,11.70
2023-04-30T04:34:01.550Z,12.00
2023-04-30T04:39:05.989Z,10.20
2023-04-30T04:44:09.996Z,9.40
2023-04-30T04:49:14.876Z,11.60
2023-04-30T04:54:18.736Z,12.30
2023-04-30T04:59:23.539Z,11.70
2023-04-30T05:04:28.417Z,9.40
2023-04-30T05:09:34.823Z,15.00
2023-04-30T05:14:38.759Z,13.80
2023-04-30T05:19:42.707Z,12.60
2023-04-30T05:24:46.657Z,13.60
2023-04-30T05:29:51.425Z,12.20
2023-04-30T05:34:56.166Z,11.70
2023-04-30T05:39:59.901Z,12.60
2023-04-30T05:45:05.435Z,10.40
2023-04-30T05:50:10.432Z,14.80
2023-04-30T05:55:15.762Z,11.60
2023-04-30T06:00:24.453Z,11.90
2023-04-30T06:05:29.117Z,12.10
2023-04-30T06:10:34.405Z,12.30
2023-04-30T06:15:39.152Z,11.10
2023-04-30T06:20:43.368Z,12.90
2023-04-30T06:25:47.712Z,11.50
2023-04-30T06:30:52.474Z,11.00
2023-04-30T06:35:57.379Z,11.30
2023-04-30T06:41:01.383Z,11.30
2023-04-30T06:46:07.429Z,12.80
2023-04-30T06:51:11.440Z,12.80
2023-04-30T06:56:15.485Z,13.20
2023-04-30T07:01:19.606Z,11.00
2023-04-30T07:06:26.244Z,10.60
2023-04-30T07:11:31.455Z,14.30
2023-04-30T07:16:35.767Z,11.20
2023-04-30T07:21:40.924Z,13.30
2023-04-30T07:26:44.896Z,9.90
2023-04-30T07:31:48.830Z,16.40
2023-04-30T07:36:52.731Z,11.60
2023-04-30T07:41:56.695Z,9.90
2023-04-30T07:47:00.595Z,10.10
2023-04-30T07:52:04.461Z,10.70
2023-04-30T07:57:08.603Z,9.30
2023-04-30T08:02:12.707Z,9.50
2023-04-30T08:07:18.782Z,9.60
2023-04-30T08:12:22.820Z,9.70
2023-04-30T08:17:27.034Z,8.20
2023-04-30T08:22:31.788Z,7.50
2023-04-30T08:27:36.576Z,10.30
2023-04-30T08:32:41.884Z,9.60
2023-04-30T08:37:47.398Z,8.00
2023-04-30T08:43:05.452Z,5.90
2023-04-30T08:48:16.471Z,9.50
2023-04-30T08:53:22.038Z,8.70
2023-04-30T08:58:26.020Z,8.50
2023-04-30T09:03:31.880Z,9.50
2023-04-30T09:08:47.598Z,6.40
2023-04-30T09:13:55.869Z,7.40
2023-04-30T09:19:00.245Z,6.10
2023-04-30T09:24:05.892Z,7.10
2023-04-30T09:29:10.950Z,7.50
2023-04-30T09:34:15.675Z,10.50
2023-04-30T09:39:19.834Z,8.10
2023-04-30T09:44:33.434Z,6.70
2023-04-30T09:49:38.406Z,8.80
2023-04-30T09:54:45.266Z,5.70
2023-04-30T09:59:49.539Z,7.20
2023-04-30T10:04:57.209Z,9.80
2023-04-30T10:10:08.962Z,5.10
2023-04-30T10:15:33.257Z,8.60
2023-04-30T10:20:38.868Z,6.40
2023-04-30T10:25:44.417Z,9.00
2023-04-30T10:30:48.724Z,5.30
2023-04-30T10:36:14.089Z,5.00
2023-04-30T10:41:20.566Z,9.30
2023-04-30T10:46:25.089Z,5.50
2023-04-30T10:51:48.876Z,6.10
2023-04-30T10:56:53.906Z,5.50
2023-04-30T11:02:00.951Z,7.20
2023-04-30T11:07:12.120Z,5.70
2023-04-30T11:12:28.874Z,6.20
2023-04-30T11:17:32.869Z,10.10
2023-04-30T11:22:39.440Z,6.60
2023-04-30T11:27:48.915Z,5.60
2023-04-30T11:32:55.148Z,7.20
2023-04-30T11:38:00.553Z,7.90
2023-04-30T11:43:04.609Z,5.70
2023-04-30T11:48:15.061Z,7.70
2023-04-30T11:53:19.524Z,3.90
2023-04-30T11:58:23.622Z,5.50
2023-04-30T12:03:27.767Z,5.70
2023-04-30T12:08:32.241Z,5.90
2023-04-30T12:13:36.957Z,9.60
2023-04-30T12:18:41.156Z,6.00
2023-04-30T12:23:49.276Z,5.60
2023-04-30T12:28:53.241Z,8.70
2023-04-30T12:33:57.618Z,6.20
2023-04-30T12:39:18.503Z,4.90
2023-04-30T12:44:27.916Z,5.50
2023-04-30T12:49:35.510Z,8.10
2023-04-30T12:54:45.600Z,5.10
2023-04-30T12:59:52.633Z,6.80
2023-04-30T13:04:57.387Z,5.30
2023-04-30T13:10:08.969Z,6.90
2023-04-30T13:15:12.996Z,6.20
2023-04-30T13:20:17.927Z,5.60
2023-04-30T13:25:22.695Z,6.30
2023-04-30T13:30:26.816Z,6.00
2023-04-30T13:35:30.835Z,6.10
2023-04-30T13:40:35.305Z,5.40
2023-04-30T13:45:40.154Z,5.60
2023-04-30T13:50:44.417Z,7.70
2023-04-30T13:55:49.217Z,6.00
2023-04-30T14:00:53.532Z,5.70
2023-04-30T14:06:02.032Z,6.80
2023-04-30T14:11:07.200Z,7.90
2023-04-30T14:16:11.344Z,5.50
2023-04-30T14:21:15.562Z,5.80
2023-04-30T14:26:19.260Z,4.80
2023-04-30T14:31:23.705Z,4.70
2023-04-30T14:36:28.694Z,5.80
2023-04-30T14:41:36.848Z,5.50
2023-04-30T14:46:41.273Z,5.40
2023-04-30T14:51:45.180Z,5.50
2023-04-30T14:56:49.838Z,6.50
2023-04-30T15:01:54.722Z,4.20
2023-04-30T15:06:58.807Z,4.30
2023-04-30T15:12:02.700Z,7.10
2023-04-30T15:17:06.581Z,5.30
2023-04-30T15:22:11.507Z,7.70
2023-04-30T15:27:16.728Z,8.80
2023-04-30T15:32:21.376Z,10.00
2023-04-30T15:37:25.677Z,7.60
2023-04-30T15:42:30.505Z,2.90
2023-04-30T15:47:34.354Z,5.70
2023-04-30T15:52:40.188Z,5.90
2023-04-30T15:57:45.066Z,4.10
2023-04-30T16:02:49.149Z,4.80
2023-04-30T16:07:54.753Z,5.50
2023-04-30T16:12:58.524Z,6.80
2023-04-30T16:18:02.397Z,7.10
2023-04-30T16:23:06.521Z,5.20
2023-04-30T16:28:10.655Z,6.30
2023-04-30T16:33:14.857Z,11.30
2023-04-30T16:38:19.084Z,6.30
2023-04-30T16:43:22.917Z,3.90
2023-04-30T16:48:26.795Z,5.40
2023-04-30T16:53:30.648Z,5.70
2023-04-30T16:58:35.432Z,5.50
2023-04-30T17:03:39.646Z,4.40
2023-04-30T17:08:43.800Z,7.50
2023-04-30T17:13:49.578Z,5.80
2023-04-30T17:18:53.963Z,5.60
2023-04-30T17:23:59.019Z,6.20
2023-04-30T17:29:09.167Z,3.80
2023-04-30T17:34:16.959Z,7.10
2023-04-30T17:39:22.505Z,4.20
2023-04-30T17:44:27.823Z,6.00
2023-04-30T17:49:33.271Z,6.80
2023-04-30T17:54:38.858Z,5.80
2023-04-30T17:59:44.475Z,7.80
2023-04-30T18:04:50.277Z,9.00
2023-04-30T18:09:54.856Z,9.30
2023-04-30T18:14:59.264Z,8.40
2023-04-30T18:20:04.349Z,8.40
2023-04-30T18:25:10.729Z,8.40
2023-04-30T18:30:14.635Z,8.70
2023-04-30T18:35:19.197Z,9.70
2023-04-30T18:40:25.226Z,9.80
2023-04-30T18:45:30.080Z,10.10
2023-04-30T18:50:36.033Z,11.00
2023-04-30T18:55:40.658Z,9.30
2023-04-30T19:00:46.003Z,8.60
2023-04-30T19:05:56.090Z,8.50
2023-04-30T19:11:05.225Z,12.90
2023-04-30T19:16:11.772Z,12.20
2023-04-30T19:21:16.796Z,12.30
2023-04-30T19:26:24.158Z,12.40
2023-04-30T19:31:37.012Z,23.40
2023-04-30T19:36:46.313Z,16.00
2023-04-30T19:41:52.761Z,16.30
2023-04-30T19:47:03.107Z,14.30
2023-04-30T19:52:09.605Z,18.10
2023-04-30T19:57:16.685Z,12.60
2023-04-30T20:02:21.831Z,18.80
2023-04-30T20:07:34.672Z,50.10
2023-04-30T20:12:40.398Z,252.80
2023-04-30T20:17:46.879Z,220.10
2023-04-30T20:22:54.839Z,66.70
2023-04-30T20:28:00.190Z,87.70
2023-04-30T20:33:08.847Z,61.20
2023-04-30T20:38:15.370Z,77.30
2023-04-30T20:43:20.753Z,75.20
2023-04-30T20:48:27.612Z,57.40
2023-04-30T20:53:32.381Z,17.40
2023-04-30T20:58:36.258Z,17.30
2023-04-30T21:03:41.156Z,11.90
2023-04-30T21:08:46.921Z,11.00
2023-04-30T21:13:52.174Z,15.70
2023-04-30T21:18:56.966Z,14.30
2023-04-30T21:24:10.081Z,17.30
2023-04-30T21:29:16.431Z,16.10
2023-04-30T21:34:23.827Z,16.50
2023-04-30T21:39:32.083Z,18.50
2023-04-30T21:44:37.540Z,15.50
2023-04-30T21:49:43.210Z,15.40
2023-04-30T21:54:50.238Z,18.90
2023-04-30T21:59:54.950Z,22.90
2023-04-30T22:05:02.772Z,25.80
2023-04-30T22:10:08.545Z,22.30
2023-04-30T22:15:14.657Z,23.30
2023-04-30T22:20:18.876Z,19.40
2023-04-30T22:25:23.917Z,20.30
2023-04-30T22:30:27.925Z,24.80
2023-04-30T22:35:36.465Z,25.30
2023-04-30T22:40:40.613Z,24.80
2023-04-30T22:45:44.778Z,28.70
2023-04-30T22:50:52.017Z,29.20
2023-04-30T22:55:57.928Z,32.90
2023-04-30T23:01:03.048Z,32.50
2023-04-30T23:06:07.971Z,34.40
2023-04-30T23:11:12.775Z,32.70
2023-04-30T23:16:17.079Z,37.70
2023-04-30T23:21:22.337Z,35.50
2023-04-30T23:26:27.056Z,30.40
2023-04-30T23:31:31.054Z,27.10
2023-04-30T23:36:36.352Z,30.30
2023-04-30T23:41:41.512Z,25.90
2023-04-30T23:46:45.581Z,25.40
2023-04-30T23:51:50.143Z,23.90
2023-04-30T23:56:58.745Z,22.00
